KISQ/ISQ METAR and TAF weather

Enter ICAO airport designator
Station Type Date Time Source
KISQ METAR 2019/08/26 06:59 UTC NOAA

KISQ 260659Z AUTO 15011G16KT 10SM BKN050 20/16 A3005 RMK AO2 T01960164


Station Type Date Time Source
KISQ Decoded METAR 2019/08/26 06:59 UTC NOAA

Station name not available
Aug 26, 2019 - 02:59 AM EDT / 2019.08.26 0659 UTC
Wind: from the SSE (150 degrees) at 13 MPH (11 KT) gusting to 18 MPH (16 KT):0
Visibility: 10 mile(s):0
Sky conditions: mostly cloudy
Temperature: 67.3 F (19.6 C)
Dew Point: 61.5 F (16.4 C)
Relative Humidity: 81%
Pressure (altimeter): 30.05 in. Hg (1017 hPa)
ob: KISQ 260659Z AUTO 15011G16KT 10SM BKN050 20/16 A3005 RMK AO2 T01960164
cycle: 7

Station Type Date Time Source
KISQ TAF UTC NOAA

Error!

Example: see airport list